sensor_id;sensor_type;location;lat;lon;timestamp;P1;durP1;ratioP1;P2;durP2;ratioP2
19673;SDS011;9986;50.610;7.230;2023-06-14T00:00:27;4.57;;;3.93;;
19673;SDS011;9986;50.610;7.230;2023-06-14T00:03:04;6.63;;;4.60;;
19673;SDS011;9986;50.610;7.230;2023-06-14T00:05:42;4.97;;;4.57;;
19673;SDS011;9986;50.610;7.230;2023-06-14T00:08:21;4.40;;;4.00;;
19673;SDS011;9986;50.610;7.230;2023-06-14T00:10:58;4.83;;;4.43;;
19673;SDS011;9986;50.610;7.230;2023-06-14T00:13:42;5.33;;;4.10;;
19673;SDS011;9986;50.610;7.230;2023-06-14T00:16:20;5.40;;;3.80;;
19673;SDS011;9986;50.610;7.230;2023-06-14T00:18:58;4.97;;;4.47;;
19673;SDS011;9986;50.610;7.230;2023-06-14T00:21:36;7.80;;;4.63;;
19673;SDS011;9986;50.610;7.230;2023-06-14T00:24:13;4.73;;;4.13;;
19673;SDS011;9986;50.610;7.230;2023-06-14T00:26:51;4.90;;;4.37;;
19673;SDS011;9986;50.610;7.230;2023-06-14T00:32:01;4.20;;;3.80;;
19673;SDS011;9986;50.610;7.230;2023-06-14T00:34:45;5.73;;;4.27;;
19673;SDS011;9986;50.610;7.230;2023-06-14T00:37:22;4.93;;;4.00;;
19673;SDS011;9986;50.610;7.230;2023-06-14T00:40:01;4.23;;;3.83;;
19673;SDS011;9986;50.610;7.230;2023-06-14T00:42:47;4.60;;;4.20;;
19673;SDS011;9986;50.610;7.230;2023-06-14T00:45:25;4.33;;;3.93;;
19673;SDS011;9986;50.610;7.230;2023-06-14T00:48:03;4.77;;;4.07;;
19673;SDS011;9986;50.610;7.230;2023-06-14T00:50:48;4.27;;;3.97;;
19673;SDS011;9986;50.610;7.230;2023-06-14T00:53:26;4.17;;;3.87;;
19673;SDS011;9986;50.610;7.230;2023-06-14T00:56:04;6.67;;;4.40;;
19673;SDS011;9986;50.610;7.230;2023-06-14T00:58:42;9.30;;;4.90;;
19673;SDS011;9986;50.610;7.230;2023-06-14T01:01:22;7.60;;;4.50;;
19673;SDS011;9986;50.610;7.230;2023-06-14T01:04:00;5.13;;;3.93;;
19673;SDS011;9986;50.610;7.230;2023-06-14T01:06:40;5.77;;;4.10;;
19673;SDS011;9986;50.610;7.230;2023-06-14T01:09:21;4.63;;;4.20;;
19673;SDS011;9986;50.610;7.230;2023-06-14T01:12:05;5.03;;;3.93;;
19673;SDS011;9986;50.610;7.230;2023-06-14T01:14:45;4.37;;;3.97;;
19673;SDS011;9986;50.610;7.230;2023-06-14T01:17:24;6.33;;;4.63;;
19673;SDS011;9986;50.610;7.230;2023-06-14T01:22:48;10.10;;;4.30;;
19673;SDS011;9986;50.610;7.230;2023-06-14T01:25:33;5.10;;;4.23;;
19673;SDS011;9986;50.610;7.230;2023-06-14T01:30:53;5.93;;;4.10;;
19673;SDS011;9986;50.610;7.230;2023-06-14T01:33:31;4.37;;;3.97;;
19673;SDS011;9986;50.610;7.230;2023-06-14T01:36:15;4.70;;;3.93;;
19673;SDS011;9986;50.610;7.230;2023-06-14T01:41:35;4.87;;;3.83;;
19673;SDS011;9986;50.610;7.230;2023-06-14T01:44:19;6.80;;;4.40;;
19673;SDS011;9986;50.610;7.230;2023-06-14T01:47:03;6.97;;;4.40;;
19673;SDS011;9986;50.610;7.230;2023-06-14T01:49:41;4.50;;;4.10;;
19673;SDS011;9986;50.610;7.230;2023-06-14T01:52:25;4.60;;;4.03;;
19673;SDS011;9986;50.610;7.230;2023-06-14T01:55:03;4.60;;;4.20;;
19673;SDS011;9986;50.610;7.230;2023-06-14T02:00:13;5.00;;;4.43;;
19673;SDS011;9986;50.610;7.230;2023-06-14T02:05:27;6.17;;;4.10;;
19673;SDS011;9986;50.610;7.230;2023-06-14T02:08:10;5.77;;;4.47;;
19673;SDS011;9986;50.610;7.230;2023-06-14T02:10:51;4.47;;;4.07;;
19673;SDS011;9986;50.610;7.230;2023-06-14T02:13:34;6.73;;;4.30;;
19673;SDS011;9986;50.610;7.230;2023-06-14T02:16:12;4.70;;;4.30;;
19673;SDS011;9986;50.610;7.230;2023-06-14T02:18:51;5.43;;;4.87;;
19673;SDS011;9986;50.610;7.230;2023-06-14T02:21:28;4.90;;;4.33;;
19673;SDS011;9986;50.610;7.230;2023-06-14T02:24:06;4.23;;;3.83;;
19673;SDS011;9986;50.610;7.230;2023-06-14T02:26:46;4.90;;;4.20;;
19673;SDS011;9986;50.610;7.230;2023-06-14T02:29:24;5.60;;;4.50;;
19673;SDS011;9986;50.610;7.230;2023-06-14T02:32:02;4.90;;;4.10;;
19673;SDS011;9986;50.610;7.230;2023-06-14T02:34:49;5.57;;;4.43;;
19673;SDS011;9986;50.610;7.230;2023-06-14T02:40:03;4.40;;;4.00;;
19673;SDS011;9986;50.610;7.230;2023-06-14T02:42:48;5.63;;;4.53;;
19673;SDS011;9986;50.610;7.230;2023-06-14T02:45:25;4.67;;;4.17;;
19673;SDS011;9986;50.610;7.230;2023-06-14T02:48:04;5.63;;;5.03;;
19673;SDS011;9986;50.610;7.230;2023-06-14T02:50:41;15.63;;;12.73;;
19673;SDS011;9986;50.610;7.230;2023-06-14T02:53:20;6.97;;;5.70;;
19673;SDS011;9986;50.610;7.230;2023-06-14T02:55:59;4.90;;;4.50;;
19673;SDS011;9986;50.610;7.230;2023-06-14T03:01:13;5.87;;;4.50;;
19673;SDS011;9986;50.610;7.230;2023-06-14T03:04:02;7.47;;;4.33;;
19673;SDS011;9986;50.610;7.230;2023-06-14T03:09:15;5.20;;;4.70;;
19673;SDS011;9986;50.610;7.230;2023-06-14T03:12:01;4.53;;;4.13;;
19673;SDS011;9986;50.610;7.230;2023-06-14T03:14:39;5.77;;;4.90;;
19673;SDS011;9986;50.610;7.230;2023-06-14T03:19:52;4.50;;;4.13;;
19673;SDS011;9986;50.610;7.230;2023-06-14T03:22:36;5.17;;;4.70;;
19673;SDS011;9986;50.610;7.230;2023-06-14T03:27:46;6.37;;;4.43;;
19673;SDS011;9986;50.610;7.230;2023-06-14T03:33:03;4.77;;;4.10;;
19673;SDS011;9986;50.610;7.230;2023-06-14T03:35:42;5.93;;;4.20;;
19673;SDS011;9986;50.610;7.230;2023-06-14T03:38:20;4.57;;;4.17;;
19673;SDS011;9986;50.610;7.230;2023-06-14T03:40:58;4.50;;;4.10;;
19673;SDS011;9986;50.610;7.230;2023-06-14T03:43:36;7.43;;;3.80;;
19673;SDS011;9986;50.610;7.230;2023-06-14T03:46:14;5.50;;;4.30;;
19673;SDS011;9986;50.610;7.230;2023-06-14T03:49:00;15.93;;;13.17;;
19673;SDS011;9986;50.610;7.230;2023-06-14T03:51:44;8.93;;;7.43;;
19673;SDS011;9986;50.610;7.230;2023-06-14T03:54:21;12.00;;;9.10;;
19673;SDS011;9986;50.610;7.230;2023-06-14T03:57:05;6.27;;;5.63;;
19673;SDS011;9986;50.610;7.230;2023-06-14T03:59:43;4.60;;;4.20;;
19673;SDS011;9986;50.610;7.230;2023-06-14T04:02:22;5.00;;;4.60;;
19673;SDS011;9986;50.610;7.230;2023-06-14T04:05:00;5.20;;;4.50;;
19673;SDS011;9986;50.610;7.230;2023-06-14T04:07:40;8.40;;;4.30;;
19673;SDS011;9986;50.610;7.230;2023-06-14T04:10:18;5.27;;;4.20;;
19673;SDS011;9986;50.610;7.230;2023-06-14T04:12:56;4.27;;;3.87;;
19673;SDS011;9986;50.610;7.230;2023-06-14T04:18:05;6.00;;;4.30;;
19673;SDS011;9986;50.610;7.230;2023-06-14T04:23:12;5.73;;;4.47;;
19673;SDS011;9986;50.610;7.230;2023-06-14T04:25:50;4.70;;;4.20;;
19673;SDS011;9986;50.610;7.230;2023-06-14T04:31:03;4.53;;;4.07;;
19673;SDS011;9986;50.610;7.230;2023-06-14T04:33:41;10.30;;;8.10;;
19673;SDS011;9986;50.610;7.230;2023-06-14T04:36:25;5.37;;;4.83;;
19673;SDS011;9986;50.610;7.230;2023-06-14T04:41:34;5.33;;;4.40;;
19673;SDS011;9986;50.610;7.230;2023-06-14T04:44:20;4.97;;;4.43;;
19673;SDS011;9986;50.610;7.230;2023-06-14T04:46:57;5.73;;;4.47;;
19673;SDS011;9986;50.610;7.230;2023-06-14T04:49:35;5.30;;;3.60;;
19673;SDS011;9986;50.610;7.230;2023-06-14T04:52:13;5.67;;;4.20;;
19673;SDS011;9986;50.610;7.230;2023-06-14T04:54:51;11.20;;;8.23;;
19673;SDS011;9986;50.610;7.230;2023-06-14T04:57:30;4.40;;;4.00;;
19673;SDS011;9986;50.610;7.230;2023-06-14T05:00:09;5.87;;;4.50;;
19673;SDS011;9986;50.610;7.230;2023-06-14T05:05:29;4.83;;;4.17;;
19673;SDS011;9986;50.610;7.230;2023-06-14T05:08:06;4.40;;;4.00;;
19673;SDS011;9986;50.610;7.230;2023-06-14T05:10:44;4.80;;;3.90;;
19673;SDS011;9986;50.610;7.230;2023-06-14T05:13:24;4.47;;;4.07;;
19673;SDS011;9986;50.610;7.230;2023-06-14T05:16:02;5.87;;;4.00;;
19673;SDS011;9986;50.610;7.230;2023-06-14T05:18:46;5.13;;;4.03;;
19673;SDS011;9986;50.610;7.230;2023-06-14T05:21:30;6.33;;;4.40;;
19673;SDS011;9986;50.610;7.230;2023-06-14T05:24:10;17.23;;;12.87;;
19673;SDS011;9986;50.610;7.230;2023-06-14T05:26:54;5.20;;;4.70;;
19673;SDS011;9986;50.610;7.230;2023-06-14T05:32:07;4.57;;;4.10;;
19673;SDS011;9986;50.610;7.230;2023-06-14T05:34:45;4.83;;;4.43;;
19673;SDS011;9986;50.610;7.230;2023-06-14T05:37:23;4.93;;;4.10;;
19673;SDS011;9986;50.610;7.230;2023-06-14T05:40:04;4.40;;;4.00;;
19673;SDS011;9986;50.610;7.230;2023-06-14T05:42:42;7.07;;;4.37;;
19673;SDS011;9986;50.610;7.230;2023-06-14T05:45:22;4.60;;;3.70;;
19673;SDS011;9986;50.610;7.230;2023-06-14T05:50:35;7.20;;;4.00;;
19673;SDS011;9986;50.610;7.230;2023-06-14T05:53:13;6.13;;;4.00;;
19673;SDS011;9986;50.610;7.230;2023-06-14T05:55:51;4.80;;;3.63;;
19673;SDS011;9986;50.610;7.230;2023-06-14T06:00:59;4.37;;;3.97;;
19673;SDS011;9986;50.610;7.230;2023-06-14T06:03:37;4.40;;;4.00;;
19673;SDS011;9986;50.610;7.230;2023-06-14T06:08:46;7.17;;;4.30;;
19673;SDS011;9986;50.610;7.230;2023-06-14T06:11:32;6.37;;;4.10;;
19673;SDS011;9986;50.610;7.230;2023-06-14T06:16:40;5.83;;;4.93;;
19673;SDS011;9986;50.610;7.230;2023-06-14T06:19:25;5.87;;;4.53;;
19673;SDS011;9986;50.610;7.230;2023-06-14T06:22:05;4.73;;;4.33;;
19673;SDS011;9986;50.610;7.230;2023-06-14T06:27:33;4.20;;;3.90;;
19673;SDS011;9986;50.610;7.230;2023-06-14T06:30:12;4.07;;;3.77;;
19673;SDS011;9986;50.610;7.230;2023-06-14T06:32:56;4.40;;;4.00;;
19673;SDS011;9986;50.610;7.230;2023-06-14T06:38:03;5.10;;;4.00;;
19673;SDS011;9986;50.610;7.230;2023-06-14T06:40:41;4.03;;;3.63;;
19673;SDS011;9986;50.610;7.230;2023-06-14T06:45:54;5.67;;;4.33;;
19673;SDS011;9986;50.610;7.230;2023-06-14T06:51:15;4.13;;;3.53;;
19673;SDS011;9986;50.610;7.230;2023-06-14T06:53:54;3.90;;;3.50;;
19673;SDS011;9986;50.610;7.230;2023-06-14T06:56:31;3.63;;;3.30;;
19673;SDS011;9986;50.610;7.230;2023-06-14T06:59:10;3.70;;;3.40;;
19673;SDS011;9986;50.610;7.230;2023-06-14T07:01:51;6.37;;;3.43;;
19673;SDS011;9986;50.610;7.230;2023-06-14T07:04:28;6.40;;;4.10;;
19673;SDS011;9986;50.610;7.230;2023-06-14T07:07:00;4.33;;;3.50;;
19673;SDS011;9986;50.610;7.230;2023-06-14T07:09:40;4.77;;;3.60;;
19673;SDS011;9986;50.610;7.230;2023-06-14T07:12:26;4.47;;;3.33;;
19673;SDS011;9986;50.610;7.230;2023-06-14T07:17:40;4.60;;;3.23;;
19673;SDS011;9986;50.610;7.230;2023-06-14T07:20:18;5.13;;;3.20;;
19673;SDS011;9986;50.610;7.230;2023-06-14T07:22:56;5.87;;;3.00;;
19673;SDS011;9986;50.610;7.230;2023-06-14T07:25:33;3.30;;;3.00;;
19673;SDS011;9986;50.610;7.230;2023-06-14T07:28:11;3.23;;;2.63;;
19673;SDS011;9986;50.610;7.230;2023-06-14T07:30:49;2.73;;;2.53;;
19673;SDS011;9986;50.610;7.230;2023-06-14T07:33:35;4.83;;;2.50;;
19673;SDS011;9986;50.610;7.230;2023-06-14T07:36:13;4.63;;;2.33;;
19673;SDS011;9986;50.610;7.230;2023-06-14T07:41:32;2.97;;;2.77;;
19673;SDS011;9986;50.610;7.230;2023-06-14T07:44:10;5.53;;;2.77;;
19673;SDS011;9986;50.610;7.230;2023-06-14T07:49:17;3.50;;;2.37;;
19673;SDS011;9986;50.610;7.230;2023-06-14T07:54:45;3.30;;;2.53;;
19673;SDS011;9986;50.610;7.230;2023-06-14T07:57:28;3.23;;;2.53;;
19673;SDS011;9986;50.610;7.230;2023-06-14T08:00:07;2.30;;;2.07;;
19673;SDS011;9986;50.610;7.230;2023-06-14T08:05:23;3.57;;;2.60;;
19673;SDS011;9986;50.610;7.230;2023-06-14T08:08:07;5.57;;;2.47;;
19673;SDS011;9986;50.610;7.230;2023-06-14T08:10:44;2.50;;;2.30;;
19673;SDS011;9986;50.610;7.230;2023-06-14T08:13:28;2.53;;;2.30;;
19673;SDS011;9986;50.610;7.230;2023-06-14T08:16:12;4.50;;;2.30;;
19673;SDS011;9986;50.610;7.230;2023-06-14T08:18:49;1.70;;;1.60;;
19673;SDS011;9986;50.610;7.230;2023-06-14T08:21:33;2.00;;;1.40;;
19673;SDS011;9986;50.610;7.230;2023-06-14T08:24:11;4.23;;;1.80;;
19673;SDS011;9986;50.610;7.230;2023-06-14T08:27:00;3.33;;;1.43;;
19673;SDS011;9986;50.610;7.230;2023-06-14T08:29:39;1.53;;;1.43;;
19673;SDS011;9986;50.610;7.230;2023-06-14T08:32:17;1.47;;;1.37;;
19673;SDS011;9986;50.610;7.230;2023-06-14T08:35:00;3.03;;;1.50;;
19673;SDS011;9986;50.610;7.230;2023-06-14T08:37:40;4.83;;;3.00;;
19673;SDS011;9986;50.610;7.230;2023-06-14T08:40:26;3.10;;;2.00;;
19673;SDS011;9986;50.610;7.230;2023-06-14T08:43:04;5.17;;;1.73;;
19673;SDS011;9986;50.610;7.230;2023-06-14T08:45:45;1.87;;;1.67;;
19673;SDS011;9986;50.610;7.230;2023-06-14T08:48:23;3.13;;;1.70;;
19673;SDS011;9986;50.610;7.230;2023-06-14T08:51:02;1.83;;;1.70;;
19673;SDS011;9986;50.610;7.230;2023-06-14T08:53:47;4.20;;;1.80;;
19673;SDS011;9986;50.610;7.230;2023-06-14T08:56:33;2.47;;;1.73;;
19673;SDS011;9986;50.610;7.230;2023-06-14T08:59:13;2.23;;;1.60;;
19673;SDS011;9986;50.610;7.230;2023-06-14T09:04:21;1.67;;;1.57;;
19673;SDS011;9986;50.610;7.230;2023-06-14T09:06:59;1.50;;;1.40;;
19673;SDS011;9986;50.610;7.230;2023-06-14T09:09:31;1.70;;;1.60;;
19673;SDS011;9986;50.610;7.230;2023-06-14T09:12:10;3.37;;;1.90;;
19673;SDS011;9986;50.610;7.230;2023-06-14T09:14:48;1.60;;;1.50;;
19673;SDS011;9986;50.610;7.230;2023-06-14T09:17:25;3.13;;;1.77;;
19673;SDS011;9986;50.610;7.230;2023-06-14T09:20:04;2.33;;;2.13;;
19673;SDS011;9986;50.610;7.230;2023-06-14T09:25:23;1.73;;;1.60;;
19673;SDS011;9986;50.610;7.230;2023-06-14T09:28:01;3.03;;;1.50;;
19673;SDS011;9986;50.610;7.230;2023-06-14T09:33:24;2.90;;;1.77;;
19673;SDS011;9986;50.610;7.230;2023-06-14T09:36:02;3.03;;;1.80;;
19673;SDS011;9986;50.610;7.230;2023-06-14T09:38:52;1.87;;;1.77;;
19673;SDS011;9986;50.610;7.230;2023-06-14T09:41:36;3.90;;;1.70;;
19673;SDS011;9986;50.610;7.230;2023-06-14T09:44:14;2.50;;;1.70;;
19673;SDS011;9986;50.610;7.230;2023-06-14T09:46:52;4.03;;;3.70;;
19673;SDS011;9986;50.610;7.230;2023-06-14T09:52:00;3.73;;;1.80;;
19673;SDS011;9986;50.610;7.230;2023-06-14T09:54:40;2.10;;;1.77;;
19673;SDS011;9986;50.610;7.230;2023-06-14T09:57:20;5.33;;;1.60;;
19673;SDS011;9986;50.610;7.230;2023-06-14T10:02:31;2.10;;;1.40;;
19673;SDS011;9986;50.610;7.230;2023-06-14T10:05:09;1.60;;;1.50;;
19673;SDS011;9986;50.610;7.230;2023-06-14T10:10:18;1.93;;;1.70;;
19673;SDS011;9986;50.610;7.230;2023-06-14T10:12:59;1.50;;;1.40;;
19673;SDS011;9986;50.610;7.230;2023-06-14T10:15:45;1.57;;;1.37;;
19673;SDS011;9986;50.610;7.230;2023-06-14T10:18:33;2.00;;;1.80;;
19673;SDS011;9986;50.610;7.230;2023-06-14T10:21:18;2.23;;;1.70;;
19673;SDS011;9986;50.610;7.230;2023-06-14T10:26:50;6.77;;;6.17;;
19673;SDS011;9986;50.610;7.230;2023-06-14T10:29:28;1.60;;;1.47;;
19673;SDS011;9986;50.610;7.230;2023-06-14T10:32:12;1.70;;;1.60;;
19673;SDS011;9986;50.610;7.230;2023-06-14T10:35:00;1.80;;;1.70;;
19673;SDS011;9986;50.610;7.230;2023-06-14T10:37:43;2.00;;;1.90;;
19673;SDS011;9986;50.610;7.230;2023-06-14T10:40:31;2.50;;;1.60;;
19673;SDS011;9986;50.610;7.230;2023-06-14T10:43:22;3.80;;;1.90;;
19673;SDS011;9986;50.610;7.230;2023-06-14T10:46:14;2.17;;;1.70;;
19673;SDS011;9986;50.610;7.230;2023-06-14T10:48:58;3.53;;;1.70;;
19673;SDS011;9986;50.610;7.230;2023-06-14T10:51:41;5.03;;;1.57;;
19673;SDS011;9986;50.610;7.230;2023-06-14T10:54:21;2.23;;;1.53;;
19673;SDS011;9986;50.610;7.230;2023-06-14T10:56:59;1.80;;;1.50;;
19673;SDS011;9986;50.610;7.230;2023-06-14T10:59:37;1.97;;;1.57;;
19673;SDS011;9986;50.610;7.230;2023-06-14T11:07:42;1.60;;;1.50;;
19673;SDS011;9986;50.610;7.230;2023-06-14T11:10:22;2.47;;;1.40;;
19673;SDS011;9986;50.610;7.230;2023-06-14T11:13:02;1.47;;;1.37;;
19673;SDS011;9986;50.610;7.230;2023-06-14T11:18:16;2.62;;;1.30;;
19673;SDS011;9986;50.610;7.230;2023-06-14T11:20:53;1.57;;;1.30;;
19673;SDS011;9986;50.610;7.230;2023-06-14T11:23:37;1.70;;;1.12;;
19673;SDS011;9986;50.610;7.230;2023-06-14T11:28:51;1.45;;;1.35;;
19673;SDS011;9986;50.610;7.230;2023-06-14T11:31:37;1.02;;;1.02;;
19673;SDS011;9986;50.610;7.230;2023-06-14T11:34:16;3.00;;;1.10;;
19673;SDS011;9986;50.610;7.230;2023-06-14T11:36:57;1.47;;;1.37;;
19673;SDS011;9986;50.610;7.230;2023-06-14T11:39:35;1.75;;;1.55;;
19673;SDS011;9986;50.610;7.230;2023-06-14T11:42:14;1.45;;;1.22;;
19673;SDS011;9986;50.610;7.230;2023-06-14T11:44:52;1.77;;;1.10;;
19673;SDS011;9986;50.610;7.230;2023-06-14T11:47:32;2.22;;;1.52;;
19673;SDS011;9986;50.610;7.230;2023-06-14T11:50:15;4.35;;;1.65;;
19673;SDS011;9986;50.610;7.230;2023-06-14T11:52:54;1.20;;;1.15;;
19673;SDS011;9986;50.610;7.230;2023-06-14T11:58:22;1.30;;;1.20;;
19673;SDS011;9986;50.610;7.230;2023-06-14T12:01:06;1.37;;;1.20;;
19673;SDS011;9986;50.610;7.230;2023-06-14T12:03:49;1.22;;;1.10;;
19673;SDS011;9986;50.610;7.230;2023-06-14T12:06:33;1.50;;;1.37;;
19673;SDS011;9986;50.610;7.230;2023-06-14T12:09:18;1.37;;;1.27;;
19673;SDS011;9986;50.610;7.230;2023-06-14T12:12:02;1.32;;;1.22;;
19673;SDS011;9986;50.610;7.230;2023-06-14T12:14:42;2.60;;;1.42;;
19673;SDS011;9986;50.610;7.230;2023-06-14T12:17:26;2.42;;;1.40;;
19673;SDS011;9986;50.610;7.230;2023-06-14T12:20:06;1.42;;;1.30;;
19673;SDS011;9986;50.610;7.230;2023-06-14T12:22:51;1.42;;;1.35;;
19673;SDS011;9986;50.610;7.230;2023-06-14T12:25:30;3.02;;;1.10;;
19673;SDS011;9986;50.610;7.230;2023-06-14T12:28:17;1.55;;;1.00;;
19673;SDS011;9986;50.610;7.230;2023-06-14T12:30:54;1.30;;;1.20;;
19673;SDS011;9986;50.610;7.230;2023-06-14T12:36:04;1.05;;;1.05;;
19673;SDS011;9986;50.610;7.230;2023-06-14T12:38:48;1.50;;;1.40;;
19673;SDS011;9986;50.610;7.230;2023-06-14T12:41:25;1.80;;;1.30;;
19673;SDS011;9986;50.610;7.230;2023-06-14T12:44:05;2.33;;;1.40;;
19673;SDS011;9986;50.610;7.230;2023-06-14T12:46:43;1.42;;;1.20;;
19673;SDS011;9986;50.610;7.230;2023-06-14T12:49:20;4.78;;;1.70;;
19673;SDS011;9986;50.610;7.230;2023-06-14T12:52:04;1.22;;;1.12;;
19673;SDS011;9986;50.610;7.230;2023-06-14T12:54:49;2.17;;;1.20;;
19673;SDS011;9986;50.610;7.230;2023-06-14T12:57:27;2.83;;;1.62;;
19673;SDS011;9986;50.610;7.230;2023-06-14T13:00:05;1.42;;;1.32;;
19673;SDS011;9986;50.610;7.230;2023-06-14T13:02:50;1.80;;;1.65;;
19673;SDS011;9986;50.610;7.230;2023-06-14T13:05:27;1.50;;;1.40;;
19673;SDS011;9986;50.610;7.230;2023-06-14T13:08:05;2.12;;;1.40;;
19673;SDS011;9986;50.610;7.230;2023-06-14T13:10:43;2.25;;;1.55;;
19673;SDS011;9986;50.610;7.230;2023-06-14T13:15:56;1.60;;;1.50;;
19673;SDS011;9986;50.610;7.230;2023-06-14T13:21:10;2.55;;;1.57;;
19673;SDS011;9986;50.610;7.230;2023-06-14T13:26:17;3.17;;;1.52;;
19673;SDS011;9986;50.610;7.230;2023-06-14T13:28:54;3.50;;;1.87;;
19673;SDS011;9986;50.610;7.230;2023-06-14T13:31:38;3.90;;;1.90;;
19673;SDS011;9986;50.610;7.230;2023-06-14T13:39:43;2.25;;;2.05;;
19673;SDS011;9986;50.610;7.230;2023-06-14T13:42:21;2.50;;;1.60;;
19673;SDS011;9986;50.610;7.230;2023-06-14T13:44:59;5.45;;;3.17;;
19673;SDS011;9986;50.610;7.230;2023-06-14T13:47:37;3.15;;;1.80;;
19673;SDS011;9986;50.610;7.230;2023-06-14T13:50:22;2.05;;;1.95;;
19673;SDS011;9986;50.610;7.230;2023-06-14T13:53:07;2.00;;;1.90;;
19673;SDS011;9986;50.610;7.230;2023-06-14T13:55:46;2.60;;;2.12;;
19673;SDS011;9986;50.610;7.230;2023-06-14T13:58:24;1.77;;;1.60;;
19673;SDS011;9986;50.610;7.230;2023-06-14T14:01:09;3.35;;;1.77;;
19673;SDS011;9986;50.610;7.230;2023-06-14T14:03:48;2.55;;;1.47;;
19673;SDS011;9986;50.610;7.230;2023-06-14T14:06:27;1.67;;;1.57;;
19673;SDS011;9986;50.610;7.230;2023-06-14T14:09:05;1.77;;;1.67;;
19673;SDS011;9986;50.610;7.230;2023-06-14T14:11:43;2.60;;;1.70;;
19673;SDS011;9986;50.610;7.230;2023-06-14T14:14:22;1.82;;;1.72;;
19673;SDS011;9986;50.610;7.230;2023-06-14T14:19:34;2.12;;;1.87;;
19673;SDS011;9986;50.610;7.230;2023-06-14T14:22:12;2.58;;;1.40;;
19673;SDS011;9986;50.610;7.230;2023-06-14T14:24:50;3.70;;;1.60;;
19673;SDS011;9986;50.610;7.230;2023-06-14T14:27:28;4.30;;;1.92;;
19673;SDS011;9986;50.610;7.230;2023-06-14T14:32:48;1.70;;;1.60;;
19673;SDS011;9986;50.610;7.230;2023-06-14T14:35:25;2.40;;;1.70;;
19673;SDS011;9986;50.610;7.230;2023-06-14T14:38:03;3.55;;;1.67;;
19673;SDS011;9986;50.610;7.230;2023-06-14T14:43:24;2.00;;;1.70;;
19673;SDS011;9986;50.610;7.230;2023-06-14T14:48:39;1.87;;;1.60;;
19673;SDS011;9986;50.610;7.230;2023-06-14T14:51:16;1.50;;;1.40;;
19673;SDS011;9986;50.610;7.230;2023-06-14T14:53:54;2.47;;;1.65;;
19673;SDS011;9986;50.610;7.230;2023-06-14T14:56:32;2.35;;;1.50;;
19673;SDS011;9986;50.610;7.230;2023-06-14T14:59:10;2.17;;;1.92;;
19673;SDS011;9986;50.610;7.230;2023-06-14T15:01:48;3.15;;;1.42;;
19673;SDS011;9986;50.610;7.230;2023-06-14T15:04:25;2.72;;;1.60;;
19673;SDS011;9986;50.610;7.230;2023-06-14T15:07:11;4.95;;;3.92;;
19673;SDS011;9986;50.610;7.230;2023-06-14T15:09:55;12.40;;;3.55;;
19673;SDS011;9986;50.610;7.230;2023-06-14T15:12:40;6.05;;;2.00;;
19673;SDS011;9986;50.610;7.230;2023-06-14T15:18:01;2.83;;;1.85;;
19673;SDS011;9986;50.610;7.230;2023-06-14T15:20:39;3.12;;;1.98;;
19673;SDS011;9986;50.610;7.230;2023-06-14T15:23:16;1.80;;;1.70;;
19673;SDS011;9986;50.610;7.230;2023-06-14T15:26:00;2.27;;;1.87;;
19673;SDS011;9986;50.610;7.230;2023-06-14T15:28:37;1.87;;;1.60;;
19673;SDS011;9986;50.610;7.230;2023-06-14T15:31:15;4.60;;;1.90;;
19673;SDS011;9986;50.610;7.230;2023-06-14T15:33:53;2.60;;;1.80;;
19673;SDS011;9986;50.610;7.230;2023-06-14T15:36:30;2.75;;;1.62;;
19673;SDS011;9986;50.610;7.230;2023-06-14T15:41:44;4.15;;;1.60;;
19673;SDS011;9986;50.610;7.230;2023-06-14T15:44:22;2.08;;;1.87;;
19673;SDS011;9986;50.610;7.230;2023-06-14T15:47:00;2.83;;;1.75;;
19673;SDS011;9986;50.610;7.230;2023-06-14T15:49:44;2.00;;;1.55;;
19673;SDS011;9986;50.610;7.230;2023-06-14T15:52:22;2.08;;;1.92;;
19673;SDS011;9986;50.610;7.230;2023-06-14T15:55:00;3.90;;;1.80;;
19673;SDS011;9986;50.610;7.230;2023-06-14T15:57:37;2.25;;;1.60;;
19673;SDS011;9986;50.610;7.230;2023-06-14T16:00:16;1.75;;;1.65;;
19673;SDS011;9986;50.610;7.230;2023-06-14T16:05:30;2.80;;;1.90;;
19673;SDS011;9986;50.610;7.230;2023-06-14T16:10:50;2.40;;;1.85;;
19673;SDS011;9986;50.610;7.230;2023-06-14T16:13:28;1.80;;;1.70;;
19673;SDS011;9986;50.610;7.230;2023-06-14T16:16:06;2.05;;;1.60;;
19673;SDS011;9986;50.610;7.230;2023-06-14T16:18:43;3.90;;;1.70;;
19673;SDS011;9986;50.610;7.230;2023-06-14T16:21:27;5.17;;;3.37;;
19673;SDS011;9986;50.610;7.230;2023-06-14T16:24:10;4.28;;;2.37;;
19673;SDS011;9986;50.610;7.230;2023-06-14T16:29:24;4.75;;;2.20;;
19673;SDS011;9986;50.610;7.230;2023-06-14T16:34:50;4.78;;;2.40;;
19673;SDS011;9986;50.610;7.230;2023-06-14T16:37:37;1.70;;;1.60;;
19673;SDS011;9986;50.610;7.230;2023-06-14T16:40:14;2.37;;;1.82;;
19673;SDS011;9986;50.610;7.230;2023-06-14T16:42:52;3.92;;;2.05;;
19673;SDS011;9986;50.610;7.230;2023-06-14T16:48:05;2.47;;;2.17;;
19673;SDS011;9986;50.610;7.230;2023-06-14T16:50:44;2.33;;;2.00;;
19673;SDS011;9986;50.610;7.230;2023-06-14T16:53:21;2.30;;;2.10;;
19673;SDS011;9986;50.610;7.230;2023-06-14T16:56:05;3.62;;;1.62;;
19673;SDS011;9986;50.610;7.230;2023-06-14T16:58:48;2.10;;;1.90;;
19673;SDS011;9986;50.610;7.230;2023-06-14T17:01:26;3.00;;;1.85;;
19673;SDS011;9986;50.610;7.230;2023-06-14T17:04:04;1.90;;;1.80;;
19673;SDS011;9986;50.610;7.230;2023-06-14T17:06:48;2.02;;;1.90;;
19673;SDS011;9986;50.610;7.230;2023-06-14T17:12:01;3.92;;;1.90;;
19673;SDS011;9986;50.610;7.230;2023-06-14T17:14:47;1.90;;;1.80;;
19673;SDS011;9986;50.610;7.230;2023-06-14T17:20:00;8.90;;;5.72;;
19673;SDS011;9986;50.610;7.230;2023-06-14T17:22:38;2.10;;;1.90;;
19673;SDS011;9986;50.610;7.230;2023-06-14T17:25:22;2.17;;;2.08;;
19673;SDS011;9986;50.610;7.230;2023-06-14T17:28:11;2.33;;;1.70;;
19673;SDS011;9986;50.610;7.230;2023-06-14T17:30:54;1.82;;;1.72;;
19673;SDS011;9986;50.610;7.230;2023-06-14T17:33:38;2.87;;;1.70;;
19673;SDS011;9986;50.610;7.230;2023-06-14T17:38:58;3.37;;;1.87;;
19673;SDS011;9986;50.610;7.230;2023-06-14T17:41:35;1.67;;;1.55;;
19673;SDS011;9986;50.610;7.230;2023-06-14T17:44:13;3.60;;;1.98;;
19673;SDS011;9986;50.610;7.230;2023-06-14T17:46:58;2.17;;;2.08;;
19673;SDS011;9986;50.610;7.230;2023-06-14T17:49:36;3.60;;;2.12;;
19673;SDS011;9986;50.610;7.230;2023-06-14T17:54:55;1.95;;;1.80;;
19673;SDS011;9986;50.610;7.230;2023-06-14T17:57:33;1.92;;;1.80;;
19673;SDS011;9986;50.610;7.230;2023-06-14T18:00:12;3.40;;;1.72;;
19673;SDS011;9986;50.610;7.230;2023-06-14T18:02:50;1.70;;;1.60;;
19673;SDS011;9986;50.610;7.230;2023-06-14T18:05:28;2.10;;;1.85;;
19673;SDS011;9986;50.610;7.230;2023-06-14T18:08:13;2.40;;;2.30;;
19673;SDS011;9986;50.610;7.230;2023-06-14T18:10:58;4.37;;;2.05;;
19673;SDS011;9986;50.610;7.230;2023-06-14T18:13:42;1.90;;;1.80;;
19673;SDS011;9986;50.610;7.230;2023-06-14T18:16:26;2.77;;;1.90;;
19673;SDS011;9986;50.610;7.230;2023-06-14T18:21:41;4.10;;;1.82;;
19673;SDS011;9986;50.610;7.230;2023-06-14T18:26:54;1.60;;;1.50;;
19673;SDS011;9986;50.610;7.230;2023-06-14T18:29:31;1.92;;;1.80;;
19673;SDS011;9986;50.610;7.230;2023-06-14T18:32:15;2.08;;;1.90;;
19673;SDS011;9986;50.610;7.230;2023-06-14T18:34:53;2.75;;;2.00;;
19673;SDS011;9986;50.610;7.230;2023-06-14T18:37:30;2.37;;;2.10;;
19673;SDS011;9986;50.610;7.230;2023-06-14T18:40:14;3.75;;;1.98;;
19673;SDS011;9986;50.610;7.230;2023-06-14T18:42:51;2.15;;;1.95;;
19673;SDS011;9986;50.610;7.230;2023-06-14T18:45:30;3.45;;;2.05;;
19673;SDS011;9986;50.610;7.230;2023-06-14T18:48:16;2.30;;;2.20;;
19673;SDS011;9986;50.610;7.230;2023-06-14T18:53:29;2.08;;;1.87;;
19673;SDS011;9986;50.610;7.230;2023-06-14T18:56:07;3.77;;;2.08;;
19673;SDS011;9986;50.610;7.230;2023-06-14T18:58:44;3.65;;;2.02;;
19673;SDS011;9986;50.610;7.230;2023-06-14T19:03:59;5.20;;;1.92;;
19673;SDS011;9986;50.610;7.230;2023-06-14T19:09:12;2.25;;;2.15;;
19673;SDS011;9986;50.610;7.230;2023-06-14T19:11:57;5.97;;;1.82;;
19673;SDS011;9986;50.610;7.230;2023-06-14T19:14:35;2.83;;;2.02;;
19673;SDS011;9986;50.610;7.230;2023-06-14T19:17:21;3.30;;;2.20;;